Time,TemperatureF,DewpointF,PressureIn,WindDirection,WindDirectionDegrees,WindSpeedMPH,WindSpeedGustMPH,Humidity,HourlyPrecipIn,Conditions,Clouds,dailyrainin,SoftwareType,DateUTC
2013-01-23 00:00:00,-11.8,-17.5,30.41,West,261,0.0,1.0,75,0.00,,,0.00,VWS V12.07,2013-01-23 06:00:00,
2013-01-23 00:05:00,-12.0,-17.7,30.41,West,262,0.0,0.0,75,0.00,,,0.00,VWS V12.07,2013-01-23 06:05:00,
2013-01-23 00:10:00,-12.1,-17.8,30.41,West,262,0.0,0.0,75,0.00,,,0.00,VWS V12.07,2013-01-23 06:10:00,
2013-01-23 00:15:00,-12.3,-18.0,30.41,West,262,0.0,0.0,75,0.00,,,0.00,VWS V12.07,2013-01-23 06:15:00,
2013-01-23 00:20:00,-12.5,-18.2,30.40,West,262,0.0,0.0,75,0.00,,,0.00,VWS V12.07,2013-01-23 06:20:00,
2013-01-23 00:25:00,-12.7,-18.4,30.40,West,262,0.0,0.0,75,0.00,,,0.00,VWS V12.07,2013-01-23 06:25:00,
2013-01-23 00:30:00,-13.0,-18.6,30.40,West,262,0.0,0.0,75,0.00,,,0.00,VWS V12.07,2013-01-23 06:30:00,
2013-01-23 00:35:00,-13.1,-18.7,30.40,West,261,0.0,0.0,75,0.00,,,0.00,VWS V12.07,2013-01-23 06:35:00,
2013-01-23 00:40:00,-13.2,-18.6,30.39,West,261,0.0,0.0,76,0.00,,,0.00,VWS V12.07,2013-01-23 06:40:00,
2013-01-23 00:45:00,-13.3,-18.7,30.39,West,262,0.0,0.0,76,0.00,,,0.00,VWS V12.07,2013-01-23 06:45:00,
2013-01-23 00:55:00,-13.4,-18.8,30.39,West,262,0.0,0.0,76,0.00,,,0.00,VWS V12.07,2013-01-23 06:55:00,
2013-01-23 01:00:00,-13.5,-18.9,30.39,West,261,0.0,0.0,76,0.00,,,0.00,VWS V12.07,2013-01-23 07:00:00,
2013-01-23 01:10:00,-13.6,-19.0,30.39,West,262,0.0,0.0,76,0.00,,,0.00,VWS V12.07,2013-01-23 07:10:00,
2013-01-23 01:15:00,-13.8,-19.2,30.39,West,261,0.0,0.0,76,0.00,,,0.00,VWS V12.07,2013-01-23 07:15:00,
2013-01-23 01:20:00,-13.8,-19.2,30.39,West,262,0.0,0.0,76,0.00,,,0.00,VWS V12.07,2013-01-23 07:20:00,
2013-01-23 01:25:00,-13.9,-19.3,30.39,West,262,0.0,0.0,76,0.00,,,0.00,VWS V12.07,2013-01-23 07:25:00,
2013-01-23 01:30:00,-14.0,-19.4,30.39,West,262,0.0,0.0,76,0.00,,,0.00,VWS V12.07,2013-01-23 07:30:00,
2013-01-23 01:35:00,-14.1,-19.5,30.39,West,261,0.0,0.0,76,0.00,,,0.00,VWS V12.07,2013-01-23 07:35:00,
2013-01-23 01:45:00,-14.2,-19.6,30.39,West,261,0.0,0.0,76,0.00,,,0.00,VWS V12.07,2013-01-23 07:45:00,
2013-01-23 01:50:00,-14.2,-19.6,30.39,West,261,0.0,0.0,76,0.00,,,0.00,VWS V12.07,2013-01-23 07:50:00,
2013-01-23 02:00:00,-14.3,-19.7,30.39,West,262,0.0,0.0,76,0.00,,,0.00,VWS V12.07,2013-01-23 08:00:00,
2013-01-23 02:05:00,-14.4,-19.8,30.39,West,261,0.0,0.0,76,0.00,,,0.00,VWS V12.07,2013-01-23 08:05:00,
2013-01-23 02:10:00,-14.5,-19.9,30.39,West,262,0.0,0.0,76,0.00,,,0.00,VWS V12.07,2013-01-23 08:10:00,
2013-01-23 02:20:00,-14.8,-20.1,30.38,West,262,0.0,0.0,76,0.00,,,0.00,VWS V12.07,2013-01-23 08:20:00,
2013-01-23 02:25:00,-14.8,-20.1,30.38,West,261,0.0,0.0,76,0.00,,,0.00,VWS V12.07,2013-01-23 08:25:00,
2013-01-23 02:30:00,-14.9,-20.2,30.38,West,261,0.0,0.0,76,0.00,,,0.00,VWS V12.07,2013-01-23 08:30:00,
2013-01-23 02:35:00,-14.9,-20.2,30.38,West,262,0.0,0.0,76,0.00,,,0.00,VWS V12.07,2013-01-23 08:35:00,
2013-01-23 02:45:00,-14.8,-19.9,30.38,West,262,0.0,0.0,77,0.00,,,0.00,VWS V12.07,2013-01-23 08:45:00,
2013-01-23 02:50:00,-14.7,-19.8,30.38,West,261,0.0,0.0,77,0.00,,,0.00,VWS V12.07,2013-01-23 08:50:00,
2013-01-23 02:55:00,-14.5,-19.6,30.38,West,262,0.0,0.0,77,0.00,,,0.00,VWS V12.07,2013-01-23 08:55:00,
2013-01-23 03:00:00,-14.3,-19.4,30.37,West,261,0.0,0.0,77,0.00,,,0.00,VWS V12.07,2013-01-23 09:00:00,
2013-01-23 03:10:00,-13.8,-18.7,30.36,West,262,1.0,1.0,78,0.00,,,0.00,VWS V12.07,2013-01-23 09:10:00,
2013-01-23 03:15:00,-13.5,-18.4,30.36,West,262,0.0,1.0,78,0.00,,,0.00,VWS V12.07,2013-01-23 09:15:00,
2013-01-23 03:20:00,-13.4,-18.5,30.36,West,262,0.0,1.0,77,0.00,,,0.00,VWS V12.07,2013-01-23 09:20:00,
2013-01-23 03:25:00,-13.4,-18.5,30.37,West,261,0.0,1.0,77,0.00,,,0.00,VWS V12.07,2013-01-23 09:25:00,
2013-01-23 03:30:00,-13.3,-18.4,30.37,West,261,0.0,1.0,77,0.00,,,0.00,VWS V12.07,2013-01-23 09:30:00,
2013-01-23 03:40:00,-13.5,-18.6,30.36,West,262,0.0,0.0,77,0.00,,,0.00,VWS V12.07,2013-01-23 09:40:00,
2013-01-23 03:45:00,-13.6,-18.7,30.36,West,261,0.0,0.0,77,0.00,,,0.00,VWS V12.07,2013-01-23 09:45:00,
2013-01-23 03:50:00,-13.6,-18.7,30.36,West,262,0.0,0.0,77,0.00,,,0.00,VWS V12.07,2013-01-23 09:50:00,
2013-01-23 03:55:00,-13.6,-18.7,30.36,West,262,0.0,0.0,77,0.00,,,0.00,VWS V12.07,2013-01-23 09:55:00,
2013-01-23 04:00:00,-13.8,-18.9,30.36,West,261,0.0,0.0,77,0.00,,,0.00,VWS V12.07,2013-01-23 10:00:00,
2013-01-23 04:10:00,-14.0,-19.1,30.36,West,261,0.0,0.0,77,0.00,,,0.00,VWS V12.07,2013-01-23 10:10:00,
2013-01-23 04:15:00,-14.1,-19.2,30.35,West,262,0.0,0.0,77,0.00,,,0.00,VWS V12.07,2013-01-23 10:15:00,
2013-01-23 04:20:00,-14.2,-19.3,30.35,West,262,0.0,1.0,77,0.00,,,0.00,VWS V12.07,2013-01-23 10:20:00,
2013-01-23 04:25:00,-14.3,-19.4,30.35,West,262,0.0,1.0,77,0.00,,,0.00,VWS V12.07,2013-01-23 10:25:00,
2013-01-23 04:30:00,-14.4,-19.5,30.35,West,262,0.0,1.0,77,0.00,,,0.00,VWS V12.07,2013-01-23 10:30:00,
2013-01-23 04:35:00,-14.4,-19.5,30.35,West,262,0.0,1.0,77,0.00,,,0.00,VWS V12.07,2013-01-23 10:35:00,
2013-01-23 04:45:00,-14.6,-19.7,30.35,West,261,0.0,1.0,77,0.00,,,0.00,VWS V12.07,2013-01-23 10:45:00,
2013-01-23 04:50:00,-14.6,-19.7,30.34,West,262,0.0,1.0,77,0.00,,,0.00,VWS V12.07,2013-01-23 10:50:00,
2013-01-23 05:00:00,-14.7,-19.8,30.34,West,261,0.0,1.0,77,0.00,,,0.00,VWS V12.07,2013-01-23 11:00:00,
2013-01-23 05:10:00,-14.8,-19.9,30.34,West,262,0.0,1.0,77,0.00,,,0.00,VWS V12.07,2013-01-23 11:10:00,
2013-01-23 05:15:00,-14.7,-19.5,30.34,West,261,0.0,1.0,78,0.00,,,0.00,VWS V12.07,2013-01-23 11:15:00,
2013-01-23 05:20:00,-14.6,-19.5,30.35,West,261,0.0,1.0,78,0.00,,,0.00,VWS V12.07,2013-01-23 11:20:00,
2013-01-23 05:30:00,-14.4,-19.5,30.34,West,262,0.0,1.0,77,0.00,,,0.00,VWS V12.07,2013-01-23 11:30:00,
2013-01-23 05:35:00,-14.2,-19.1,30.33,West,262,0.0,1.0,78,0.00,,,0.00,VWS V12.07,2013-01-23 11:35:00,
2013-01-23 05:40:00,-14.1,-19.0,30.33,West,261,0.0,1.0,78,0.00,,,0.00,VWS V12.07,2013-01-23 11:40:00,
2013-01-23 05:50:00,-14.2,-19.3,30.34,West,262,0.0,1.0,77,0.00,,,0.00,VWS V12.07,2013-01-23 11:50:00,
2013-01-23 05:55:00,-14.2,-19.1,30.34,West,262,0.0,1.0,78,0.00,,,0.00,VWS V12.07,2013-01-23 11:55:00,
2013-01-23 06:00:00,-14.0,-18.9,30.33,West,262,0.0,1.0,78,0.00,,,0.00,VWS V12.07,2013-01-23 12:00:00,
2013-01-23 06:05:00,-13.9,-18.8,30.33,West,262,0.0,0.0,78,0.00,,,0.00,VWS V12.07,2013-01-23 12:05:00,
2013-01-23 06:15:00,-13.4,-18.0,30.33,West,261,0.0,1.0,79,0.00,,,0.00,VWS V12.07,2013-01-23 12:15:00,
2013-01-23 06:25:00,-13.0,-17.6,30.33,West,261,0.0,1.0,79,0.00,,,0.00,VWS V12.07,2013-01-23 12:25:00,
2013-01-23 06:30:00,-12.7,-17.4,30.32,West,261,0.0,1.0,79,0.00,,,0.00,VWS V12.07,2013-01-23 12:30:00,
2013-01-23 06:35:00,-12.5,-17.1,30.32,West,261,0.0,0.0,79,0.00,,,0.00,VWS V12.07,2013-01-23 12:35:00,
2013-01-23 06:40:00,-12.1,-16.8,30.32,West,261,0.0,0.0,79,0.00,,,0.00,VWS V12.07,2013-01-23 12:40:00,
2013-01-23 06:45:00,-11.7,-16.1,30.31,West,261,0.0,1.0,80,0.00,,,0.00,VWS V12.07,2013-01-23 12:45:00,
2013-01-23 06:50:00,-11.3,-15.7,30.31,West,261,0.0,1.0,80,0.00,,,0.00,VWS V12.07,2013-01-23 12:50:00,
2013-01-23 06:55:00,-11.1,-15.8,30.31,West,260,0.0,1.0,79,0.00,,,0.00,VWS V12.07,2013-01-23 12:55:00,
2013-01-23 07:00:00,-10.8,-15.2,30.31,West,261,1.0,2.0,80,0.00,,,0.00,VWS V12.07,2013-01-23 13:00:00,
2013-01-23 07:10:00,-10.4,-15.1,30.31,West,261,0.0,1.0,79,0.00,,,0.00,VWS V12.07,2013-01-23 13:10:00,
2013-01-23 07:15:00,-10.2,-14.7,30.31,West,260,0.0,1.0,80,0.00,,,0.00,VWS V12.07,2013-01-23 13:15:00,
2013-01-23 07:20:00,-10.0,-14.5,30.31,West,261,0.0,1.0,80,0.00,,,0.00,VWS V12.07,2013-01-23 13:20:00,
2013-01-23 07:25:00,-9.9,-14.6,30.30,West,260,1.0,1.0,79,0.00,,,0.00,VWS V12.07,2013-01-23 13:25:00,
2013-01-23 07:35:00,-9.7,-14.4,30.30,West,261,0.0,1.0,79,0.00,,,0.00,VWS V12.07,2013-01-23 13:35:00,
2013-01-23 07:40:00,-9.7,-14.4,30.30,West,261,0.0,1.0,79,0.00,,,0.00,VWS V12.07,2013-01-23 13:40:00,
2013-01-23 07:45:00,-9.5,-14.2,30.30,West,260,0.0,1.0,79,0.00,,,0.00,VWS V12.07,2013-01-23 13:45:00,
2013-01-23 07:50:00,-9.4,-14.1,30.30,West,260,0.0,1.0,79,0.00,,,0.00,VWS V12.07,2013-01-23 13:50:00,
2013-01-23 07:55:00,-9.1,-13.6,30.30,West,259,0.0,2.0,80,0.00,,,0.00,VWS V12.07,2013-01-23 13:55:00,
2013-01-23 08:00:00,-8.9,-13.4,30.30,West,259,0.0,2.0,80,0.00,,,0.00,VWS V12.07,2013-01-23 14:00:00,
2013-01-23 08:05:00,-8.6,-13.1,30.30,West,259,0.0,1.0,80,0.00,,,0.00,VWS V12.07,2013-01-23 14:05:00,
2013-01-23 08:10:00,-8.2,-12.7,30.30,West,259,0.0,1.0,80,0.00,,,0.00,VWS V12.07,2013-01-23 14:10:00,
2013-01-23 08:15:00,-7.9,-12.2,30.30,West,259,0.0,1.0,81,0.00,,,0.00,VWS V12.07,2013-01-23 14:15:00,
2013-01-23 08:25:00,-7.2,-11.7,30.30,West,259,0.0,3.0,80,0.00,,,0.00,VWS V12.07,2013-01-23 14:25:00,
2013-01-23 08:35:00,-6.3,-10.6,30.30,West,267,0.0,1.0,81,0.00,,,0.00,VWS V12.07,2013-01-23 14:35:00,
2013-01-23 08:45:00,-5.5,-9.8,30.29,West,272,0.0,4.0,81,0.00,,,0.00,VWS V12.07,2013-01-23 14:45:00,
2013-01-23 08:50:00,-5.1,-9.4,30.29,West,273,0.0,4.0,81,0.00,,,0.00,VWS V12.07,2013-01-23 14:50:00,
2013-01-23 08:55:00,-4.6,-8.9,30.29,WSW,252,0.0,4.0,81,0.00,,,0.00,VWS V12.07,2013-01-23 14:55:00,
2013-01-23 09:05:00,-3.9,-8.5,30.29,WSW,254,1.0,2.0,80,0.00,,,0.00,VWS V12.07,2013-01-23 15:05:00,
2013-01-23 09:10:00,-3.6,-7.9,30.30,WSW,246,3.0,3.0,81,0.00,,,0.00,VWS V12.07,2013-01-23 15:10:00,
2013-01-23 09:15:00,-3.2,-7.8,30.30,West,276,1.0,4.0,80,0.00,,,0.00,VWS V12.07,2013-01-23 15:15:00,
2013-01-23 09:20:00,-3.0,-7.6,30.30,West,271,0.0,6.0,80,0.00,,,0.00,VWS V12.07,2013-01-23 15:20:00,
2013-01-23 09:25:00,-2.8,-7.7,30.30,West,269,0.0,6.0,79,0.00,,,0.00,VWS V12.07,2013-01-23 15:25:00,
2013-01-23 09:30:00,-2.5,-7.1,30.30,West,281,0.0,6.0,80,0.00,,,0.00,VWS V12.07,2013-01-23 15:30:00,
2013-01-23 09:35:00,-2.2,-6.8,30.30,West,277,0.0,2.0,80,0.00,,,0.00,VWS V12.07,2013-01-23 15:35:00,
2013-01-23 09:40:00,-1.8,-6.7,30.30,SW,227,0.0,4.0,79,0.00,,,0.00,VWS V12.07,2013-01-23 15:40:00,
2013-01-23 09:45:00,-1.6,-6.5,30.30,West,267,3.0,4.0,79,0.00,,,0.00,VWS V12.07,2013-01-23 15:45:00,
2013-01-23 09:55:00,-1.2,-6.1,30.30,WSW,250,0.0,4.0,79,0.00,,,0.00,VWS V12.07,2013-01-23 15:55:00,
2013-01-23 10:00:00,-0.9,-5.8,30.30,WSW,256,0.0,5.0,79,0.00,,,0.00,VWS V12.07,2013-01-23 16:00:00,
2013-01-23 10:05:00,-0.7,-5.6,30.30,West,259,0.0,3.0,79,0.00,,,0.00,VWS V12.07,2013-01-23 16:05:00,
2013-01-23 10:10:00,-0.4,-5.3,30.29,West,259,0.0,3.0,79,0.00,,,0.00,VWS V12.07,2013-01-23 16:10:00,
2013-01-23 10:15:00,-0.1,-5.3,30.29,West,277,0.0,7.0,78,0.00,,,0.00,VWS V12.07,2013-01-23 16:15:00,
2013-01-23 10:20:00,0.0,-4.9,30.29,WNW,302,0.0,7.0,79,0.00,,,0.00,VWS V12.07,2013-01-23 16:20:00,
2013-01-23 10:25:00,0.2,-5.0,30.29,WNW,293,0.0,7.0,78,0.00,,,0.00,VWS V12.07,2013-01-23 16:25:00,
2013-01-23 10:30:00,0.5,-4.7,30.29,WNW,292,0.0,7.0,78,0.00,,,0.00,VWS V12.07,2013-01-23 16:30:00,
2013-01-23 10:40:00,1.0,-4.2,30.29,WSW,256,1.0,6.0,78,0.00,,,0.00,VWS V12.07,2013-01-23 16:40:00,
2013-01-23 10:45:00,1.3,-4.0,30.29,West,263,4.0,6.0,78,0.00,,,0.00,VWS V12.07,2013-01-23 16:45:00,
2013-01-23 10:50:00,1.5,-4.0,30.29,West,275,0.0,7.0,77,0.00,,,0.00,VWS V12.07,2013-01-23 16:50:00,
2013-01-23 10:55:00,2.0,-3.5,30.29,NW,304,0.0,7.0,77,0.00,,,0.00,VWS V12.07,2013-01-23 16:55:00,
2013-01-23 11:00:00,2.4,-3.2,30.28,West,260,0.0,7.0,77,0.00,,,0.00,VWS V12.07,2013-01-23 17:00:00,
2013-01-23 11:05:00,2.9,-2.9,30.28,WNW,298,1.0,2.0,76,0.00,,,0.00,VWS V12.07,2013-01-23 17:05:00,
2013-01-23 11:10:00,3.6,-2.5,30.28,West,271,1.0,2.0,75,0.00,,,0.00,VWS V12.07,2013-01-23 17:10:00,
2013-01-23 11:20:00,4.4,-2.0,30.27,West,264,0.0,7.0,74,0.00,,,0.00,VWS V12.07,2013-01-23 17:20:00,
2013-01-23 11:30:00,4.8,-1.6,30.26,SW,223,1.0,10.0,74,0.00,,,0.00,VWS V12.07,2013-01-23 17:30:00,
2013-01-23 11:35:00,4.9,-1.8,30.26,West,263,4.0,5.0,73,0.00,,,0.00,VWS V12.07,2013-01-23 17:35:00,
2013-01-23 11:40:00,5.1,-1.4,30.25,SW,233,0.0,5.0,74,0.00,,,0.00,VWS V12.07,2013-01-23 17:40:00,
2013-01-23 11:45:00,5.5,-1.3,30.25,West,259,3.0,5.0,73,0.00,,,0.00,VWS V12.07,2013-01-23 17:45:00,
2013-01-23 11:50:00,5.9,-0.9,30.25,NNW,337,1.0,5.0,73,0.00,,,0.00,VWS V12.07,2013-01-23 17:50:00,
2013-01-23 11:55:00,6.0,-1.1,30.25,WNW,302,0.0,5.0,72,0.00,,,0.00,VWS V12.07,2013-01-23 17:55:00,
2013-01-23 12:00:00,5.9,-0.9,30.24,West,266,4.0,8.0,73,0.00,,,0.00,VWS V12.07,2013-01-23 18:00:00,
2013-01-23 12:05:00,6.1,-0.4,30.24,West,260,0.0,2.0,74,0.00,,,0.00,VWS V12.07,2013-01-23 18:05:00,
2013-01-23 12:10:00,6.4,-0.4,30.24,WSW,250,2.0,7.0,73,0.00,,,0.00,VWS V12.07,2013-01-23 18:10:00,
2013-01-23 12:15:00,6.5,-0.3,30.23,WSW,238,1.0,7.0,73,0.00,,,0.00,VWS V12.07,2013-01-23 18:15:00,
2013-01-23 12:25:00,7.6,0.5,30.23,SW,236,3.0,7.0,72,0.00,,,0.00,VWS V12.07,2013-01-23 18:25:00,
2013-01-23 12:30:00,8.0,0.9,30.23,South,182,0.0,7.0,72,0.00,,,0.00,VWS V12.07,2013-01-23 18:30:00,
2013-01-23 12:35:00,8.1,0.4,30.22,West,275,0.0,6.0,70,0.00,,,0.00,VWS V12.07,2013-01-23 18:35:00,
2013-01-23 12:45:00,8.6,1.1,30.22,NNW,329,0.0,6.0,71,0.00,,,0.00,VWS V12.07,2013-01-23 18:45:00,
2013-01-23 12:50:00,8.6,0.8,30.21,NW,325,1.0,6.0,70,0.00,,,0.00,VWS V12.07,2013-01-23 18:50:00,
2013-01-23 12:55:00,8.5,0.7,30.21,WSW,238,2.0,7.0,70,0.00,,,0.00,VWS V12.07,2013-01-23 18:55:00,
2013-01-23 13:00:00,8.3,0.9,30.21,WSW,248,2.0,7.0,71,0.00,,,0.00,VWS V12.07,2013-01-23 19:00:00,
2013-01-23 13:05:00,8.4,1.2,30.22,West,260,1.0,5.0,72,0.00,,,0.00,VWS V12.07,2013-01-23 19:05:00,
2013-01-23 13:10:00,8.4,1.5,30.22,West,265,6.0,8.0,73,0.00,,,0.00,VWS V12.07,2013-01-23 19:10:00,
2013-01-23 13:15:00,8.6,1.7,30.22,WSW,244,3.0,8.0,73,0.00,,,0.00,VWS V12.07,2013-01-23 19:15:00,
2013-01-23 13:20:00,8.7,1.5,30.22,NW,311,3.0,8.0,72,0.00,,,0.00,VWS V12.07,2013-01-23 19:20:00,
2013-01-23 13:25:00,8.8,1.9,30.22,West,263,1.0,8.0,73,0.00,,,0.00,VWS V12.07,2013-01-23 19:25:00,
2013-01-23 13:30:00,9.0,1.8,30.21,WNW,298,7.0,8.0,72,0.00,,,0.00,VWS V12.07,2013-01-23 19:30:00,
2013-01-23 13:40:00,9.4,1.6,30.22,SW,225,0.0,3.0,70,0.00,,,0.00,VWS V12.07,2013-01-23 19:40:00,
2013-01-23 13:45:00,9.5,1.7,30.22,NW,326,0.0,4.0,70,0.00,,,0.00,VWS V12.07,2013-01-23 19:45:00,
2013-01-23 13:50:00,9.4,1.9,30.22,WSW,253,6.0,6.0,71,0.00,,,0.00,VWS V12.07,2013-01-23 19:50:00,
2013-01-23 13:55:00,9.2,2.0,30.22,WSW,254,0.0,6.0,72,0.00,,,0.00,VWS V12.07,2013-01-23 19:55:00,
2013-01-23 14:00:00,9.0,2.4,30.22,WSW,244,0.0,6.0,74,0.00,,,0.00,VWS V12.07,2013-01-23 20:00:00,
2013-01-23 14:05:00,8.9,2.6,30.22,NNE,15,1.0,3.0,75,0.00,,,0.00,VWS V12.07,2013-01-23 20:05:00,
2013-01-23 14:10:00,8.9,3.2,30.23,WSW,254,0.0,3.0,77,0.00,,,0.00,VWS V12.07,2013-01-23 20:10:00,
2013-01-23 14:20:00,8.7,3.3,30.23,WSW,244,0.0,5.0,78,0.00,,,0.00,VWS V12.07,2013-01-23 20:20:00,
2013-01-23 14:25:00,8.8,3.4,30.23,West,269,0.0,5.0,78,0.00,,,0.00,VWS V12.07,2013-01-23 20:25:00,
2013-01-23 14:30:00,8.9,3.5,30.23,WSW,237,0.0,5.0,78,0.00,,,0.00,VWS V12.07,2013-01-23 20:30:00,
2013-01-23 14:35:00,8.7,3.3,30.23,NNW,330,7.0,7.0,78,0.00,,,0.00,VWS V12.07,2013-01-23 20:35:00,
2013-01-23 14:40:00,8.4,2.7,30.24,NW,315,1.0,10.0,77,0.00,,,0.00,VWS V12.07,2013-01-23 20:40:00,
2013-01-23 14:50:00,8.1,2.1,30.25,SW,223,2.0,10.0,76,0.00,,,0.00,VWS V12.07,2013-01-23 20:50:00,
2013-01-23 14:55:00,8.0,2.3,30.25,NE,44,0.0,10.0,77,0.00,,,0.00,VWS V12.07,2013-01-23 20:55:00,
2013-01-23 15:00:00,7.8,2.9,30.25,WSW,238,4.0,10.0,80,0.00,,,0.00,VWS V12.07,2013-01-23 21:00:00,
2013-01-23 15:05:00,7.6,2.7,30.26,NNW,344,1.0,10.0,80,0.00,,,0.00,VWS V12.07,2013-01-23 21:05:00,
2013-01-23 15:15:00,6.9,2.3,30.27,SW,214,3.0,10.0,81,0.00,,,0.00,VWS V12.07,2013-01-23 21:15:00,
2013-01-23 15:25:00,6.5,0.6,30.28,NE,51,2.0,13.0,76,0.00,,,0.00,VWS V12.07,2013-01-23 21:25:00,
2013-01-23 15:35:00,6.4,-0.4,30.28,WNW,299,0.0,7.0,73,0.00,,,0.00,VWS V12.07,2013-01-23 21:35:00,
2013-01-23 15:40:00,6.2,-1.2,30.29,SW,236,4.0,10.0,71,0.00,,,0.00,VWS V12.07,2013-01-23 21:40:00,
2013-01-23 15:45:00,6.1,-1.6,30.29,NNW,327,3.0,10.0,70,0.00,,,0.00,VWS V12.07,2013-01-23 21:45:00,
2013-01-23 15:50:00,6.1,-1.9,30.30,SSE,158,0.0,10.0,69,0.00,,,0.00,VWS V12.07,2013-01-23 21:50:00,
2013-01-23 16:00:00,6.1,-1.0,30.31,North,349,4.0,10.0,72,0.00,,,0.00,VWS V12.07,2013-01-23 22:00:00,
2013-01-23 16:05:00,6.0,-0.8,30.31,East,82,0.0,2.0,73,0.00,,,0.00,VWS V12.07,2013-01-23 22:05:00,
2013-01-23 16:10:00,5.8,-0.7,30.32,NNW,340,2.0,4.0,74,0.00,,,0.00,VWS V12.07,2013-01-23 22:10:00,
2013-01-23 16:15:00,5.6,-1.2,30.32,East,84,1.0,7.0,73,0.00,,,0.00,VWS V12.07,2013-01-23 22:15:00,
2013-01-23 16:20:00,5.5,-1.5,30.32,NE,47,1.0,10.0,72,0.00,,,0.00,VWS V12.07,2013-01-23 22:20:00,
2013-01-23 16:30:00,5.2,-2.4,30.33,NNE,25,3.0,10.0,70,0.00,,,0.00,VWS V12.07,2013-01-23 22:30:00,
2013-01-23 16:35:00,5.0,-2.9,30.33,ENE,61,7.0,7.0,69,0.00,,,0.00,VWS V12.07,2013-01-23 22:35:00,
2013-01-23 16:40:00,4.8,-3.1,30.33,SW,223,0.0,7.0,69,0.00,,,0.00,VWS V12.07,2013-01-23 22:40:00,
2013-01-23 16:45:00,4.6,-3.3,30.34,NNE,26,3.0,7.0,69,0.00,,,0.00,VWS V12.07,2013-01-23 22:45:00,
2013-01-23 16:50:00,4.4,-3.2,30.34,NW,311,0.0,7.0,70,0.00,,,0.00,VWS V12.07,2013-01-23 22:50:00,
2013-01-23 16:55:00,4.2,-3.1,30.35,NW,323,2.0,7.0,71,0.00,,,0.00,VWS V12.07,2013-01-23 22:55:00,
2013-01-23 17:00:00,4.1,-3.2,30.35,ENE,63,3.0,9.0,71,0.00,,,0.00,VWS V12.07,2013-01-23 23:00:00,
2013-01-23 17:05:00,4.0,-3.0,30.36,ENE,78,0.0,6.0,72,0.00,,,0.00,VWS V12.07,2013-01-23 23:05:00,
2013-01-23 17:15:00,3.8,-3.8,30.37,NE,46,0.0,9.0,70,0.00,,,0.00,VWS V12.07,2013-01-23 23:15:00,
2013-01-23 17:20:00,3.6,-4.0,30.37,East,90,0.0,9.0,70,0.00,,,0.00,VWS V12.07,2013-01-23 23:20:00,
2013-01-23 17:30:00,3.3,-4.0,30.38,NW,311,4.0,12.0,71,0.00,,,0.00,VWS V12.07,2013-01-23 23:30:00,
2013-01-23 17:40:00,3.1,-3.9,30.39,NW,310,0.0,9.0,72,0.00,,,0.00,VWS V12.07,2013-01-23 23:40:00,
2013-01-23 17:45:00,2.9,-3.8,30.39,NE,45,2.0,9.0,73,0.00,,,0.00,VWS V12.07,2013-01-23 23:45:00,
2013-01-23 17:55:00,2.6,-4.1,30.40,NW,316,0.0,9.0,73,0.00,,,0.00,VWS V12.07,2013-01-23 23:55:00,
2013-01-23 18:00:00,2.4,-4.0,30.40,WSW,253,0.0,9.0,74,0.00,,,0.00,VWS V12.07,2013-01-24 00:00:00,
2013-01-23 18:05:00,2.2,-3.9,30.41,WNW,302,9.0,9.0,75,0.00,,,0.00,VWS V12.07,2013-01-24 00:05:00,
2013-01-23 18:10:00,2.0,-4.1,30.41,West,272,4.0,9.0,75,0.00,,,0.00,VWS V12.07,2013-01-24 00:10:00,
2013-01-23 18:15:00,1.9,-3.9,30.41,NW,313,1.0,9.0,76,0.00,,,0.00,VWS V12.07,2013-01-24 00:15:00,
2013-01-23 18:20:00,1.7,-4.1,30.42,West,276,3.0,9.0,76,0.00,,,0.00,VWS V12.07,2013-01-24 00:20:00,
2013-01-23 18:25:00,1.6,-3.9,30.42,WNW,291,1.0,9.0,77,0.00,,,0.00,VWS V12.07,2013-01-24 00:25:00,
2013-01-23 18:30:00,1.4,-4.1,30.42,NNW,327,0.0,9.0,77,0.00,,,0.00,VWS V12.07,2013-01-24 00:30:00,
2013-01-23 18:35:00,1.3,-4.0,30.43,WSW,253,1.0,4.0,78,0.00,,,0.00,VWS V12.07,2013-01-24 00:35:00,
2013-01-23 18:40:00,1.3,-4.0,30.43,NW,309,1.0,7.0,78,0.00,,,0.00,VWS V12.07,2013-01-24 00:40:00,
2013-01-23 18:45:00,1.2,-4.1,30.44,NNE,26,0.0,7.0,78,0.00,,,0.00,VWS V12.07,2013-01-24 00:45:00,
2013-01-23 18:55:00,1.1,-4.1,30.44,NW,321,2.0,7.0,78,0.00,,,0.00,VWS V12.07,2013-01-24 00:55:00,
2013-01-23 19:00:00,1.0,-4.0,30.45,NNW,342,0.0,10.0,79,0.00,,,0.00,VWS V12.07,2013-01-24 01:00:00,
2013-01-23 19:10:00,1.0,-4.0,30.46,NNE,25,2.0,9.0,79,0.00,,,0.00,VWS V12.07,2013-01-24 01:10:00,
2013-01-23 19:15:00,1.1,-3.6,30.46,WSW,242,1.0,9.0,80,0.00,,,0.00,VWS V12.07,2013-01-24 01:15:00,
2013-01-23 19:20:00,1.0,-3.7,30.47,SW,230,0.0,9.0,80,0.00,,,0.00,VWS V12.07,2013-01-24 01:20:00,
2013-01-23 19:30:00,0.9,-3.8,30.48,West,271,1.0,9.0,80,0.00,,,0.00,VWS V12.07,2013-01-24 01:30:00,
2013-01-23 19:35:00,0.8,-3.7,30.48,West,269,3.0,4.0,81,0.00,,,0.00,VWS V12.07,2013-01-24 01:35:00,
2013-01-23 19:40:00,0.8,-3.7,30.49,West,275,0.0,4.0,81,0.00,,,0.00,VWS V12.07,2013-01-24 01:40:00,
2013-01-23 19:45:00,0.8,-3.7,30.50,SW,219,0.0,4.0,81,0.00,,,0.00,VWS V12.07,2013-01-24 01:45:00,
2013-01-23 19:50:00,0.7,-3.8,30.50,WNW,298,0.0,4.0,81,0.00,,,0.00,VWS V12.07,2013-01-24 01:50:00,
2013-01-23 19:55:00,0.8,-3.7,30.50,WNW,296,0.0,4.0,81,0.00,,,0.00,VWS V12.07,2013-01-24 01:55:00,
2013-01-23 20:00:00,0.8,-3.7,30.50,WNW,299,2.0,4.0,81,0.00,,,0.00,VWS V12.07,2013-01-24 02:00:00,
2013-01-23 20:05:00,0.8,-3.7,30.50,WSW,258,1.0,4.0,81,0.00,,,0.00,VWS V12.07,2013-01-24 02:05:00,
2013-01-23 20:10:00,0.8,-3.7,30.50,NNE,22,2.0,4.0,81,0.00,,,0.00,VWS V12.07,2013-01-24 02:10:00,
2013-01-23 20:15:00,0.8,-3.7,30.51,NNW,343,0.0,4.0,81,0.00,,,0.00,VWS V12.07,2013-01-24 02:15:00,
2013-01-23 20:20:00,0.8,-3.7,30.51,SW,230,0.0,4.0,81,0.00,,,0.00,VWS V12.07,2013-01-24 02:20:00,
2013-01-23 20:30:00,0.6,-4.1,30.52,NW,326,0.0,7.0,80,0.00,,,0.00,VWS V12.07,2013-01-24 02:30:00,
2013-01-23 20:35:00,0.3,-4.7,30.52,West,271,0.0,2.0,79,0.00,,,0.00,VWS V12.07,2013-01-24 02:35:00,
2013-01-23 20:40:00,0.0,-4.9,30.52,SW,227,0.0,2.0,79,0.00,,,0.00,VWS V12.07,2013-01-24 02:40:00,
2013-01-23 20:45:00,-0.4,-5.3,30.52,NW,313,0.0,3.0,79,0.00,,,0.00,VWS V12.07,2013-01-24 02:45:00,
2013-01-23 20:55:00,-1.0,-5.7,30.53,NW,313,1.0,3.0,80,0.00,,,0.00,VWS V12.07,2013-01-24 02:55:00,
2013-01-23 21:00:00,-1.3,-6.2,30.54,WSW,237,0.0,6.0,79,0.00,,,0.00,VWS V12.07,2013-01-24 03:00:00,
2013-01-23 21:05:00,-1.6,-6.5,30.54,WSW,237,0.0,0.0,79,0.00,,,0.00,VWS V12.07,2013-01-24 03:05:00,
2013-01-23 21:10:00,-1.9,-6.8,30.55,WSW,237,0.0,1.0,79,0.00,,,0.00,VWS V12.07,2013-01-24 03:10:00,
2013-01-23 21:15:00,-2.3,-7.2,30.55,WSW,238,0.0,1.0,79,0.00,,,0.00,VWS V12.07,2013-01-24 03:15:00,
2013-01-23 21:20:00,-2.5,-7.1,30.55,WSW,250,1.0,2.0,80,0.00,,,0.00,VWS V12.07,2013-01-24 03:20:00,
2013-01-23 21:25:00,-2.7,-7.3,30.55,WSW,250,0.0,2.0,80,0.00,,,0.00,VWS V12.07,2013-01-24 03:25:00,
2013-01-23 21:35:00,-3.1,-7.7,30.56,NW,326,2.0,5.0,80,0.00,,,0.00,VWS V12.07,2013-01-24 03:35:00,
2013-01-23 21:40:00,-3.1,-7.7,30.56,NW,325,0.0,5.0,80,0.00,,,0.00,VWS V12.07,2013-01-24 03:40:00,
2013-01-23 21:45:00,-3.2,-7.8,30.56,NW,325,0.0,5.0,80,0.00,,,0.00,VWS V12.07,2013-01-24 03:45:00,
2013-01-23 21:50:00,-3.4,-8.0,30.56,SW,229,0.0,5.0,80,0.00,,,0.00,VWS V12.07,2013-01-24 03:50:00,
2013-01-23 21:55:00,-3.7,-8.3,30.57,SW,229,0.0,5.0,80,0.00,,,0.00,VWS V12.07,2013-01-24 03:55:00,
2013-01-23 22:05:00,-4.1,-8.7,30.58,West,277,0.0,0.0,80,0.00,,,0.00,VWS V12.07,2013-01-24 04:05:00,
2013-01-23 22:10:00,-4.3,-8.9,30.58,West,277,0.0,2.0,80,0.00,,,0.00,VWS V12.07,2013-01-24 04:10:00,
2013-01-23 22:15:00,-4.4,-9.0,30.58,West,278,0.0,2.0,80,0.00,,,0.00,VWS V12.07,2013-01-24 04:15:00,
2013-01-23 22:20:00,-4.6,-9.2,30.58,West,278,0.0,2.0,80,0.00,,,0.00,VWS V12.07,2013-01-24 04:20:00,
2013-01-23 22:25:00,-4.6,-9.2,30.58,West,278,0.0,2.0,80,0.00,,,0.00,VWS V12.07,2013-01-24 04:25:00,
2013-01-23 22:30:00,-4.8,-9.1,30.58,West,277,0.0,2.0,81,0.00,,,0.00,VWS V12.07,2013-01-24 04:30:00,
2013-01-23 22:35:00,-4.8,-9.1,30.58,West,278,0.0,1.0,81,0.00,,,0.00,VWS V12.07,2013-01-24 04:35:00,
2013-01-23 22:40:00,-4.9,-9.5,30.59,West,277,0.0,2.0,80,0.00,,,0.00,VWS V12.07,2013-01-24 04:40:00,
2013-01-23 22:45:00,-4.9,-9.5,30.59,West,277,0.0,2.0,80,0.00,,,0.00,VWS V12.07,2013-01-24 04:45:00,
2013-01-23 22:50:00,-5.0,-9.3,30.59,West,278,0.0,2.0,81,0.00,,,0.00,VWS V12.07,2013-01-24 04:50:00,
2013-01-23 23:05:00,-5.8,-10.4,30.60,West,277,0.0,0.0,80,0.00,,,0.00,VWS V12.07,2013-01-24 05:05:00,
2013-01-23 23:10:00,-6.3,-11.1,30.61,West,278,0.0,0.0,79,0.00,,,0.00,VWS V12.07,2013-01-24 05:10:00,
2013-01-23 23:15:00,-6.4,-10.9,30.62,West,278,0.0,0.0,80,0.00,,,0.00,VWS V12.07,2013-01-24 05:15:00,
2013-01-23 23:20:00,-6.5,-11.0,30.62,West,277,0.0,0.0,80,0.00,,,0.00,VWS V12.07,2013-01-24 05:20:00,
2013-01-23 23:25:00,-6.5,-11.0,30.62,WNW,290,2.0,2.0,80,0.00,,,0.00,VWS V12.07,2013-01-24 05:25:00,
2013-01-23 23:30:00,-6.6,-11.1,30.62,WNW,287,0.0,2.0,80,0.00,,,0.00,VWS V12.07,2013-01-24 05:30:00,
2013-01-23 23:35:00,-6.6,-10.9,30.62,WNW,288,0.0,0.0,81,0.00,,,0.00,VWS V12.07,2013-01-24 05:35:00,
2013-01-23 23:45:00,-6.7,-11.2,30.63,WNW,287,0.0,2.0,80,0.00,,,0.00,VWS V12.07,2013-01-24 05:45:00,
2013-01-23 23:50:00,-6.7,-11.0,30.63,WNW,287,0.0,2.0,81,0.00,,,0.00,VWS V12.07,2013-01-24 05:50:00,
2013-01-23 23:55:00,-6.6,-10.9,30.63,WNW,287,0.0,2.0,81,0.00,,,0.00,VWS V12.07,2013-01-24 05:55:00,